首页
METAR-TAF:

METAR-TAF

机场 :

Dutchess County Airport

波啟浦夕, 紐約州, 美国

纬度: 41-37-36N, 经度: 073-53-03W, 海拔: 50米

当前天气观测

该预报发布于23分钟前的03:26 UTC
风速5节,风向南转南东
温度 20°C
湿度 88%
气压 1008 hPa
能見度: 16.1公里
阴天层高于900英尺

METAR: KPOU 200326Z AUTO 15005KT 10SM OVC009 20/18 A2976 RMK AO2 T02000178

时间: 23:49 (03:49 UTC)

预报

该预报发布于4小时和27分钟前的23:22 UTC
预报有效从20日的 00点(UTC)到 20日的 24点(UTC)
风速5节,风向东南
能見度: 10公里
散云层高于800英尺
阴天层高于3000英尺
从 20日的 0300点(UTC)
风速3节,风向多变
能見度: 4.8公里
多云层高于800英尺
小阵雨, 轻雾
从 20日的 0600点(UTC)
风速节,风向
能見度: 3.2公里
阴天层高于500英尺
轻雾
从 20日的 1200点(UTC)
风速2节,风向多变
能見度: 9.7公里
阴天层高于500英尺
轻雾
几率 30%
从 20日的 12点(UTC)到 20日的 16点(UTC)
能見度: 6.4公里
小阵雨
从 20日的 1600点(UTC)
风速4节,风向南转南东
能見度: 9.7公里
阴天层高于1500英尺, 积雨云.
小阵雨, 附近有雷暴

TAF: KPOU 192322Z 2000/2024 14005KT P6SM SCT008 OVC030 FM200300 VRB03KT 3SM -SHRA BR BKN008 FM200600 00000KT 2SM BR OVC005 FM201200 VRB02KT 6SM BR OVC005 PROB30 2012/2016 4SM -SHRA FM201600 16004KT 6SM -SHRA VCTS OVC015CB

超过4000个机场的气象观测和天气预报(METAR&TAF报告)。

可查询的气象台以黄色和红色小点在地图上表示。

将鼠标移到小点上方,可查看气象台名称。

然后点击查看天气观测和预报。

如需切换地图:点击带黑十字的绿色按钮放大地图;点击带横线的绿色按钮缩小地图;或者点击绿色箭头查看邻近地区的地图。


METAR-TAF: